Time;durP1;ratioP1;P1;durP2;ratioP2;P2;SDS_P1;SDS_P2;PMS_P1;PMS_P2;Temp;Humidity;BMP_temperature;BMP_pressure;BME280_temperature;BME280_humidity;BME280_pressure;Samples;Min_cycle;Max_cycle;Signal;HPM_P1;HPM_P2
2023/07/25 00:00:00;;;;;;;16.52;5.05;;;12.70;99.90;;;;;;5065550;28;20044;-66
2023/07/25 00:02:25;;;;;;;13.38;4.93;;;12.70;99.90;;;;;;5040905;28;20096;-66
2023/07/25 00:04:51;;;;;;;15.13;4.03;;;12.70;99.90;;;;;;5035113;28;20833;-66
2023/07/25 00:07:17;;;;;;;14.13;4.55;;;12.60;99.90;;;;;;5047601;28;20166;-67
2023/07/25 00:09:42;;;;;;;15.98;5.45;;;12.60;99.90;;;;;;5065507;28;20059;-67
2023/07/25 00:12:08;;;;;;;20.20;5.07;;;12.60;99.90;;;;;;5046872;28;20048;-67
2023/07/25 00:14:34;;;;;;;18.35;4.38;;;12.60;99.90;;;;;;5050322;28;20083;-66
2023/07/25 00:17:01;;;;;;;16.83;4.70;;;12.60;99.90;;;;;;5046346;28;20040;-67
2023/07/25 00:19:27;;;;;;;15.13;4.32;;;12.60;99.90;;;;;;5046749;28;20288;-65
2023/07/25 00:21:52;;;;;;;17.27;5.05;;;12.60;99.90;;;;;;5047244;28;20040;-67
2023/07/25 00:24:18;;;;;;;13.98;4.13;;;12.60;99.90;;;;;;5030985;28;20531;-66
2023/07/25 00:26:44;;;;;;;12.50;4.55;;;12.60;99.90;;;;;;5046646;28;20044;-67
2023/07/25 00:29:09;;;;;;;16.52;4.53;;;12.60;99.90;;;;;;5046149;28;20082;-68
2023/07/25 00:31:35;;;;;;;12.30;4.10;;;12.50;99.90;;;;;;5030713;28;20511;-67
2023/07/25 00:34:00;;;;;;;19.15;4.20;;;12.50;99.90;;;;;;5046915;28;20044;-66
2023/07/25 00:36:26;;;;;;;17.35;6.07;;;12.50;99.90;;;;;;5043892;28;20467;-67
2023/07/25 00:38:52;;;;;;;14.27;4.57;;;12.50;99.90;;;;;;5065168;28;20119;-65
2023/07/25 00:41:18;;;;;;;14.73;3.80;;;12.50;99.90;;;;;;5046317;28;20087;-66
2023/07/25 00:43:44;;;;;;;14.27;4.22;;;12.40;99.90;;;;;;5045821;28;20735;-67
2023/07/25 00:46:09;;;;;;;14.82;4.10;;;12.50;99.90;;;;;;5046334;28;20403;-66
2023/07/25 00:48:35;;;;;;;14.75;4.05;;;12.50;99.90;;;;;;5046338;28;20046;-66
2023/07/25 00:51:01;;;;;;;13.23;4.18;;;12.50;99.90;;;;;;5046327;28;20086;-67
2023/07/25 00:53:27;;;;;;;13.57;4.32;;;12.50;99.90;;;;;;5046416;28;20071;-66
2023/07/25 00:55:53;;;;;;;15.32;5.03;;;12.50;99.90;;;;;;5046297;28;20141;-67
2023/07/25 00:58:19;;;;;;;13.80;4.00;;;12.50;99.90;;;;;;5028870;28;20527;-66
2023/07/25 01:00:45;;;;;;;13.40;4.20;;;12.50;99.90;;;;;;5038198;28;20056;-65
2023/07/25 01:03:11;;;;;;;15.00;4.78;;;12.50;99.90;;;;;;5043999;28;20397;-67
2023/07/25 01:05:41;;;;;;;15.10;4.43;;;12.50;99.90;;;;;;5051504;28;20041;-66
2023/07/25 01:08:07;;;;;;;15.75;4.82;;;12.40;99.90;;;;;;5044606;28;20033;-65
2023/07/25 01:10:34;;;;;;;15.10;4.38;;;12.40;99.90;;;;;;5026136;28;20053;-66
2023/07/25 01:13:00;;;;;;;15.65;4.93;;;12.30;99.90;;;;;;5026316;28;20037;-68
2023/07/25 01:15:27;;;;;;;15.77;4.85;;;12.30;99.90;;;;;;5034885;28;20037;-66
2023/07/25 01:17:53;;;;;;;14.35;4.53;;;12.30;99.90;;;;;;5064730;28;20887;-66
2023/07/25 01:20:20;;;;;;;11.52;4.60;;;12.20;99.90;;;;;;5045864;28;20024;-66
2023/07/25 01:22:47;;;;;;;10.32;4.40;;;12.10;99.90;;;;;;5046701;28;20246;-69
2023/07/25 01:25:13;;;;;;;11.55;4.38;;;12.10;99.90;;;;;;5064280;28;20043;-69
2023/07/25 01:27:39;;;;;;;15.77;4.68;;;12.10;99.90;;;;;;5027733;28;20052;-67
2023/07/25 01:30:07;;;;;;;13.13;4.60;;;12.10;99.90;;;;;;5045941;28;20400;-68
2023/07/25 01:32:32;;;;;;;15.40;5.78;;;12.10;99.90;;;;;;5046876;28;20098;-65
2023/07/25 01:34:58;;;;;;;12.95;4.60;;;12.10;99.90;;;;;;5027426;28;21493;-65
2023/07/25 01:37:24;;;;;;;20.45;4.78;;;12.10;99.90;;;;;;5025989;28;20075;-69
2023/07/25 01:39:53;;;;;;;13.35;4.93;;;12.10;99.90;;;;;;5026460;28;20071;-67
2023/07/25 01:42:18;;;;;;;16.52;4.97;;;12.10;99.90;;;;;;5062830;28;20035;-66
2023/07/25 01:44:44;;;;;;;12.05;4.45;;;12.20;99.90;;;;;;5045935;28;20749;-67
2023/07/25 01:47:09;;;;;;;17.27;4.63;;;12.20;99.90;;;;;;5046128;28;20546;-69
2023/07/25 01:49:35;;;;;;;14.88;5.03;;;12.30;99.90;;;;;;5045796;28;20454;-68
2023/07/25 01:52:01;;;;;;;14.50;5.07;;;12.30;99.90;;;;;;5045664;28;20076;-67
2023/07/25 01:54:26;;;;;;;14.32;4.28;;;12.30;99.90;;;;;;5045822;28;20487;-68
2023/07/25 01:56:52;;;;;;;14.60;4.53;;;12.40;99.90;;;;;;5044128;28;20503;-66
2023/07/25 01:59:18;;;;;;;12.68;4.22;;;12.40;99.90;;;;;;5063993;28;20083;-68
2023/07/25 02:01:43;;;;;;;15.90;4.50;;;12.40;99.90;;;;;;5048041;28;20530;-67
2023/07/25 02:04:09;;;;;;;15.23;4.75;;;12.50;99.90;;;;;;5030115;28;20049;-68
2023/07/25 02:06:34;;;;;;;13.48;4.65;;;12.50;99.90;;;;;;5049055;28;20072;-69
2023/07/25 02:09:00;;;;;;;14.52;4.32;;;12.60;99.90;;;;;;5049865;28;20045;-67
2023/07/25 02:11:26;;;;;;;13.98;4.47;;;12.60;99.90;;;;;;5049124;28;20538;-68
2023/07/25 02:13:51;;;;;;;13.35;4.53;;;12.60;99.90;;;;;;5067532;28;20054;-67
2023/07/25 02:16:17;;;;;;;18.08;4.80;;;12.70;99.90;;;;;;5049632;28;20041;-68
2023/07/25 02:18:42;;;;;;;17.40;4.63;;;12.70;99.90;;;;;;5067961;28;20048;-68
2023/07/25 02:21:08;;;;;;;11.45;3.92;;;12.70;99.90;;;;;;5066611;28;20032;-67
2023/07/25 02:23:33;;;;;;;15.50;5.00;;;12.80;99.90;;;;;;5050026;28;20131;-69
2023/07/25 02:25:59;;;;;;;13.32;4.53;;;12.80;99.90;;;;;;5066512;28;20076;-68
2023/07/25 02:28:25;;;;;;;12.80;4.68;;;12.80;99.90;;;;;;5043257;28;20041;-68
2023/07/25 02:30:50;;;;;;;14.23;4.22;;;12.80;99.90;;;;;;5038829;28;20040;-67
2023/07/25 02:33:16;;;;;;;12.15;4.63;;;12.80;99.90;;;;;;5049074;28;20049;-67
2023/07/25 02:35:41;;;;;;;16.65;4.80;;;12.80;99.90;;;;;;5067007;28;20488;-67
2023/07/25 02:38:08;;;;;;;16.10;4.57;;;12.80;99.90;;;;;;5067008;28;20028;-67
2023/07/25 02:40:34;;;;;;;17.10;5.38;;;12.80;99.90;;;;;;5048481;28;20044;-68
2023/07/25 02:43:02;;;;;;;17.83;4.88;;;12.70;99.90;;;;;;5048511;28;20043;-67
2023/07/25 02:45:27;;;;;;;15.57;5.15;;;12.70;99.90;;;;;;5029279;28;20055;-67
2023/07/25 02:47:53;;;;;;;13.75;4.75;;;12.70;99.90;;;;;;5029692;28;20040;-68
2023/07/25 02:50:18;;;;;;;14.10;5.10;;;12.70;99.90;;;;;;5052045;28;20067;-67
2023/07/25 02:52:44;;;;;;;12.60;4.60;;;12.70;99.90;;;;;;5049151;28;20039;-67
2023/07/25 02:55:10;;;;;;;13.95;4.88;;;12.70;99.90;;;;;;5065582;28;20604;-67
2023/07/25 02:57:35;;;;;;;15.27;4.38;;;12.70;99.90;;;;;;5065124;28;20071;-69
2023/07/25 03:00:01;;;;;;;13.70;4.68;;;12.70;99.90;;;;;;5066892;28;20032;-69
2023/07/25 03:02:26;;;;;;;16.05;4.78;;;12.70;99.90;;;;;;5032504;28;20045;-68
2023/07/25 03:04:52;;;;;;;14.52;4.70;;;12.70;99.90;;;;;;5045796;28;20056;-68
2023/07/25 03:07:18;;;;;;;14.40;4.38;;;12.70;99.90;;;;;;5031806;28;20047;-67
2023/07/25 03:09:44;;;;;;;14.88;4.65;;;12.70;99.90;;;;;;5049061;28;20037;-69
2023/07/25 03:12:09;;;;;;;10.55;4.35;;;12.70;99.90;;;;;;5047912;28;20083;-68
2023/07/25 03:14:35;;;;;;;13.40;4.50;;;12.80;99.90;;;;;;5066365;28;20080;-69
2023/07/25 03:17:00;;;;;;;14.93;4.30;;;12.80;99.90;;;;;;5066202;28;20528;-69
2023/07/25 03:19:26;;;;;;;15.25;4.70;;;12.80;99.90;;;;;;5066316;28;20548;-67
2023/07/25 03:21:52;;;;;;;14.10;4.93;;;12.80;99.90;;;;;;5031104;28;20171;-69
2023/07/25 03:24:17;;;;;;;17.75;4.95;;;12.80;99.90;;;;;;5044854;28;20044;-66
2023/07/25 03:26:43;;;;;;;14.73;4.53;;;12.80;99.90;;;;;;5028185;28;20048;-67
2023/07/25 03:29:08;;;;;;;16.27;4.53;;;12.80;99.90;;;;;;5045419;28;20075;-67
2023/07/25 03:31:34;;;;;;;13.40;4.25;;;12.80;99.90;;;;;;5031792;28;20776;-66
2023/07/25 03:33:59;;;;;;;12.90;4.82;;;12.80;99.90;;;;;;5047944;28;20044;-66
2023/07/25 03:36:25;;;;;;;16.48;5.00;;;12.80;99.90;;;;;;5047290;28;20044;-68
2023/07/25 03:38:51;;;;;;;17.73;4.97;;;12.80;99.90;;;;;;5048472;28;20547;-67
2023/07/25 03:41:16;;;;;;;12.63;4.20;;;12.90;99.90;;;;;;5046877;28;20041;-67
2023/07/25 03:43:42;;;;;;;14.18;4.15;;;12.90;99.90;;;;;;5044896;28;20043;-67
2023/07/25 03:46:08;;;;;;;13.13;4.05;;;12.90;99.90;;;;;;5055815;28;20888;-67
2023/07/25 03:48:33;;;;;;;16.25;4.43;;;12.90;99.90;;;;;;5065502;28;20360;-66
2023/07/25 03:51:01;;;;;;;17.00;4.70;;;13.00;99.90;;;;;;5048028;28;20049;-68
2023/07/25 03:53:27;;;;;;;15.75;4.57;;;13.00;99.90;;;;;;5048013;28;20547;-68
2023/07/25 03:55:53;;;;;;;15.38;4.45;;;13.00;99.90;;;;;;5046998;28;20049;-65
2023/07/25 03:58:18;;;;;;;19.23;4.20;;;13.10;99.90;;;;;;5029749;28;20716;-66
2023/07/25 04:00:44;;;;;;;14.75;5.00;;;13.10;99.90;;;;;;5047584;28;20446;-67
2023/07/25 04:03:09;;;;;;;21.10;4.90;;;13.10;99.90;;;;;;5047995;28;20052;-67
2023/07/25 04:05:35;;;;;;;17.85;4.82;;;13.10;99.90;;;;;;5033044;28;20128;-67
2023/07/25 04:08:00;;;;;;;12.60;4.70;;;13.20;99.90;;;;;;5027039;28;20404;-68
2023/07/25 04:10:26;;;;;;;14.55;4.78;;;13.20;99.90;;;;;;5037825;28;20556;-67
2023/07/25 04:12:52;;;;;;;18.58;4.70;;;13.20;99.90;;;;;;5046666;28;20037;-70
2023/07/25 04:15:18;;;;;;;16.67;4.43;;;13.10;99.90;;;;;;5047459;28;20047;-68
2023/07/25 04:17:43;;;;;;;16.65;4.18;;;13.20;99.90;;;;;;5046982;28;20127;-68
2023/07/25 04:20:09;;;;;;;14.52;4.38;;;13.10;99.90;;;;;;5046767;28;20040;-68
2023/07/25 04:22:35;;;;;;;16.42;4.80;;;13.20;99.90;;;;;;5030585;28;20048;-68
2023/07/25 04:25:00;;;;;;;20.63;4.90;;;13.20;99.90;;;;;;5047290;28;20067;-68
2023/07/25 04:27:30;;;;;;;16.20;4.38;;;13.20;99.90;;;;;;5045171;28;20082;-68
2023/07/25 04:29:56;;;;;;;17.27;4.63;;;13.20;99.90;;;;;;5063960;28;20534;-68
2023/07/25 04:32:22;;;;;;;13.77;4.57;;;13.20;99.90;;;;;;5027741;28;20041;-68
2023/07/25 04:34:47;;;;;;;19.27;4.95;;;13.20;99.90;;;;;;5034339;28;20046;-68
2023/07/25 04:37:13;;;;;;;16.13;4.55;;;13.20;99.90;;;;;;5029469;28;20499;-70
2023/07/25 04:39:39;;;;;;;15.43;4.30;;;13.30;99.90;;;;;;5065072;28;20058;-69
2023/07/25 04:42:05;;;;;;;14.77;4.40;;;13.30;99.90;;;;;;5039572;28;20037;-68
2023/07/25 04:44:30;;;;;;;13.80;4.65;;;13.30;99.90;;;;;;5045400;28;20447;-67
2023/07/25 04:46:56;;;;;;;12.73;4.35;;;13.30;99.90;;;;;;5045101;28;20048;-68
2023/07/25 04:49:21;;;;;;;12.15;3.70;;;13.30;99.90;;;;;;5046802;28;20053;-67
2023/07/25 04:51:47;;;;;;;11.68;4.05;;;13.40;99.90;;;;;;5046332;28;20939;-68
2023/07/25 04:54:13;;;;;;;13.45;5.30;;;13.40;99.90;;;;;;5046795;28;20571;-66
2023/07/25 04:56:41;;;;;;;14.68;4.30;;;13.40;99.90;;;;;;5029543;28;20036;-67
2023/07/25 04:59:07;;;;;;;15.50;3.95;;;13.40;99.90;;;;;;5064266;28;20052;-67
2023/07/25 05:01:32;;;;;;;15.13;4.22;;;13.40;99.90;;;;;;5050978;28;20060;-68
2023/07/25 05:03:58;;;;;;;17.13;4.20;;;13.40;99.90;;;;;;5044233;28;20041;-68
2023/07/25 05:06:24;;;;;;;16.42;3.80;;;13.40;99.90;;;;;;5043518;28;20045;-66
2023/07/25 05:08:50;;;;;;;14.85;3.90;;;13.50;99.90;;;;;;5045243;28;20134;-66
2023/07/25 05:11:15;;;;;;;15.65;3.80;;;13.40;99.90;;;;;;5025737;28;20237;-66
2023/07/25 05:13:41;;;;;;;12.57;3.38;;;13.50;99.90;;;;;;5045483;28;20151;-67
2023/07/25 05:16:06;;;;;;;11.45;3.20;;;13.50;99.90;;;;;;5029520;28;20668;-67
2023/07/25 05:18:32;;;;;;;10.50;3.35;;;13.70;99.90;;;;;;5064545;28;20052;-67
2023/07/25 05:20:58;;;;;;;14.75;3.75;;;13.80;99.90;;;;;;5046136;28;20040;-66
2023/07/25 05:23:23;;;;;;;10.77;2.85;;;13.80;99.90;;;;;;5045915;28;20048;-67
2023/07/25 05:25:49;;;;;;;16.85;4.28;;;13.80;99.90;;;;;;5045270;28;20911;-65
2023/07/25 05:28:17;;;;;;;16.30;3.28;;;13.80;99.90;;;;;;5063716;28;20040;-67
2023/07/25 05:30:42;;;;;;;14.23;3.17;;;13.80;99.90;;;;;;5046451;28;20909;-66
2023/07/25 05:33:08;;;;;;;14.00;2.95;;;13.80;99.90;;;;;;5064871;28;20114;-65
2023/07/25 05:35:33;;;;;;;10.90;3.15;;;13.90;99.90;;;;;;5058486;28;20396;-67
2023/07/25 05:38:00;;;;;;;13.85;3.10;;;13.90;99.90;;;;;;5026143;28;20107;-66
2023/07/25 05:40:26;;;;;;;9.75;3.03;;;13.90;99.90;;;;;;5044238;28;20045;-66
2023/07/25 05:42:52;;;;;;;12.75;3.00;;;13.90;99.90;;;;;;5043052;28;20039;-65
2023/07/25 05:45:18;;;;;;;12.57;3.47;;;13.90;99.90;;;;;;5030312;28;20415;-65
2023/07/25 05:47:43;;;;;;;16.40;4.63;;;13.90;99.90;;;;;;5029399;28;20051;-66
2023/07/25 05:50:09;;;;;;;12.25;3.03;;;14.10;99.90;;;;;;5062986;28;20902;-64
2023/07/25 05:52:35;;;;;;;13.98;3.20;;;14.20;99.90;;;;;;5046000;28;20078;-65
2023/07/25 05:55:00;;;;;;;13.30;2.53;;;14.30;99.90;;;;;;5064230;28;20056;-66
2023/07/25 05:57:26;;;;;;;10.43;3.10;;;14.40;99.90;;;;;;5044065;28;20036;-67
2023/07/25 05:59:51;;;;;;;16.27;2.95;;;14.60;99.90;;;;;;5063073;28;20033;-64
2023/07/25 06:02:17;;;;;;;9.35;2.63;;;14.80;99.90;;;;;;5046382;28;20106;-68
2023/07/25 06:04:45;;;;;;;11.48;2.60;;;15.00;99.90;;;;;;5046192;28;20513;-66
2023/07/25 06:07:15;;;;;;;13.45;2.60;;;15.10;99.90;;;;;;5026588;28;20136;-67
2023/07/25 06:09:41;;;;;;;9.57;2.28;;;15.30;99.90;;;;;;5026663;28;20080;-65
2023/07/25 06:12:08;;;;;;;9.40;2.55;;;15.40;99.90;;;;;;5025228;28;20137;-67
2023/07/25 06:14:34;;;;;;;14.68;2.83;;;15.50;99.90;;;;;;5026555;28;20132;-67
2023/07/25 06:17:03;;;;;;;11.18;2.17;;;15.60;99.90;;;;;;5042913;28;20048;-66
2023/07/25 06:19:29;;;;;;;9.38;2.38;;;15.70;99.90;;;;;;5028274;28;20047;-66
2023/07/25 06:21:55;;;;;;;11.65;2.10;;;15.70;99.90;;;;;;5062966;28;20032;-67
2023/07/25 06:24:21;;;;;;;11.77;2.22;;;15.80;99.90;;;;;;5040585;28;20474;-66
2023/07/25 06:26:46;;;;;;;14.52;2.60;;;15.90;99.90;;;;;;5024356;28;20056;-66
2023/07/25 06:29:12;;;;;;;11.80;2.47;;;15.90;99.90;;;;;;5060286;28;20190;-67
2023/07/25 06:31:40;;;;;;;7.32;2.10;;;16.00;99.90;;;;;;5045018;28;20399;-66
2023/07/25 06:34:05;;;;;;;9.23;2.17;;;16.00;99.90;;;;;;5044802;28;20357;-66
2023/07/25 06:36:31;;;;;;;8.82;1.80;;;16.10;99.90;;;;;;5043729;28;20572;-65
2023/07/25 06:38:57;;;;;;;11.18;2.03;;;16.00;99.90;;;;;;5028625;28;20157;-67
2023/07/25 06:41:22;;;;;;;11.90;2.10;;;16.10;99.90;;;;;;5044889;28;20182;-66
2023/07/25 06:43:48;;;;;;;14.00;3.35;;;16.10;99.90;;;;;;5027284;28;20411;-69
2023/07/25 06:46:14;;;;;;;8.90;1.60;;;16.10;99.90;;;;;;5062301;28;20055;-70
2023/07/25 06:48:40;;;;;;;8.55;1.85;;;16.20;99.90;;;;;;5027440;28;20051;-70
2023/07/25 06:51:05;;;;;;;9.32;1.95;;;16.20;99.90;;;;;;5046457;28;20040;-69
2023/07/25 06:53:31;;;;;;;8.25;1.52;;;16.30;99.90;;;;;;5048564;28;20032;-66
2023/07/25 06:55:56;;;;;;;10.93;2.08;;;16.40;99.90;;;;;;5047140;28;20178;-67
2023/07/25 06:58:22;;;;;;;7.60;1.80;;;16.40;99.90;;;;;;5047430;28;20036;-70
2023/07/25 07:00:47;;;;;;;11.30;1.60;;;16.50;99.90;;;;;;5066877;28;20033;-63
2023/07/25 07:03:14;;;;;;;11.38;2.65;;;16.60;99.90;;;;;;5049085;28;20036;-66
2023/07/25 07:05:39;;;;;;;10.32;1.60;;;16.70;99.90;;;;;;5065453;28;20037;-64
2023/07/25 07:08:05;;;;;;;8.63;1.50;;;16.70;99.90;;;;;;5049251;28;20048;-65
2023/07/25 07:10:33;;;;;;;8.50;1.20;;;16.70;99.90;;;;;;5048104;28;20041;-68
2023/07/25 07:12:59;;;;;;;10.00;1.70;;;16.60;99.90;;;;;;5065877;28;20094;-66
2023/07/25 07:15:24;;;;;;;7.68;1.63;;;16.70;99.90;;;;;;5048225;28;20036;-67
2023/07/25 07:17:53;;;;;;;6.55;1.20;;;16.60;99.90;;;;;;5067500;28;20679;-70
2023/07/25 07:20:19;;;;;;;7.40;1.30;;;16.60;99.90;;;;;;5045204;28;20041;-67
2023/07/25 07:22:45;;;;;;;9.93;1.88;;;16.60;99.90;;;;;;5028773;28;20411;-67
2023/07/25 07:25:11;;;;;;;8.73;1.65;;;16.70;99.90;;;;;;5028731;28;20052;-65
2023/07/25 07:27:37;;;;;;;7.32;1.30;;;16.60;99.90;;;;;;5045128;28;20045;-66
2023/07/25 07:30:03;;;;;;;6.53;1.17;;;16.70;99.90;;;;;;5032469;28;20043;-66
2023/07/25 07:32:29;;;;;;;8.18;1.40;;;16.70;99.90;;;;;;5028786;28;20090;-70
2023/07/25 07:34:55;;;;;;;4.85;0.98;;;16.70;99.90;;;;;;5029399;28;20053;-68
2023/07/25 07:37:20;;;;;;;6.20;1.20;;;16.70;99.90;;;;;;5066082;28;20048;-69
2023/07/25 07:39:46;;;;;;;4.57;1.00;;;16.80;99.90;;;;;;5066686;28;20037;-70
2023/07/25 07:42:11;;;;;;;8.60;1.35;;;16.80;99.90;;;;;;5039942;28;20037;-67
2023/07/25 07:44:37;;;;;;;6.00;1.10;;;16.80;99.90;;;;;;5022973;28;20048;-66
2023/07/25 07:47:03;;;;;;;6.38;1.00;;;16.80;99.90;;;;;;5047837;28;20512;-67
2023/07/25 07:49:28;;;;;;;8.60;1.13;;;16.80;99.90;;;;;;5047480;28;20043;-68
2023/07/25 07:51:54;;;;;;;9.18;1.20;;;16.80;99.90;;;;;;5064757;28;20388;-67
2023/07/25 07:54:20;;;;;;;8.70;1.48;;;16.80;99.90;;;;;;5031286;28;20683;-68
2023/07/25 07:56:45;;;;;;;4.53;1.05;;;16.80;99.90;;;;;;5046986;28;20040;-67
2023/07/25 07:59:11;;;;;;;5.45;1.17;;;16.90;99.90;;;;;;5047352;28;20506;-67
2023/07/25 08:01:37;;;;;;;6.00;1.17;;;16.90;99.90;;;;;;5043214;28;20085;-64
2023/07/25 08:04:02;;;;;;;5.65;1.60;;;16.90;99.90;;;;;;5044243;28;20084;-69
2023/07/25 08:06:28;;;;;;;5.55;1.23;;;16.90;99.90;;;;;;5043814;28;20555;-68
2023/07/25 08:08:53;;;;;;;8.23;1.35;;;17.00;99.90;;;;;;5028012;28;20424;-65
2023/07/25 08:11:19;;;;;;;6.80;1.17;;;17.00;99.90;;;;;;5043950;28;20080;-68
2023/07/25 08:13:45;;;;;;;6.22;1.15;;;17.10;99.90;;;;;;5043614;28;20088;-67
2023/07/25 08:16:10;;;;;;;7.80;1.10;;;17.10;99.90;;;;;;5035340;28;20041;-67
2023/07/25 08:18:36;;;;;;;8.43;1.13;;;17.20;99.90;;;;;;5044782;28;20044;-69
2023/07/25 08:21:02;;;;;;;9.82;1.25;;;17.30;99.90;;;;;;5045587;28;20116;-68
2023/07/25 08:23:27;;;;;;;6.80;1.10;;;17.40;99.90;;;;;;5044350;28;20079;-67
2023/07/25 08:25:57;;;;;;;8.32;1.10;;;17.40;99.90;;;;;;5031010;28;20085;-66
2023/07/25 08:28:23;;;;;;;4.00;0.95;;;17.40;99.90;;;;;;5023335;28;20041;-69
2023/07/25 08:31:00;;;;;;;4.13;1.00;;;17.30;99.90;;;;;;5045167;28;20045;-68
2023/07/25 08:33:34;;;;;;;4.63;1.10;;;17.20;99.90;;;;;;5043583;28;20055;-67
2023/07/25 08:36:00;;;;;;;5.80;1.00;;;17.10;99.90;;;;;;5034893;28;20081;-69
2023/07/25 08:38:27;;;;;;;9.32;1.33;;;17.10;99.90;;;;;;5025422;28;20084;-67
2023/07/25 08:41:10;;;;;;;6.13;1.42;;;17.00;99.90;;;;;;5024773;28;20151;-67
2023/07/25 08:43:38;;;;;;;15.60;1.77;;;17.00;99.90;;;;;;5042336;28;20055;-66
2023/07/25 08:46:09;;;;;;;5.45;1.35;;;16.90;99.90;;;;;;5043191;28;20614;-69
2023/07/25 08:48:38;;;;;;;5.97;1.27;;;17.00;99.90;;;;;;5043684;28;20037;-68
2023/07/25 08:51:07;;;;;;;7.88;1.80;;;17.10;99.90;;;;;;5034554;28;20492;-69
2023/07/25 08:53:33;;;;;;;8.63;1.10;;;17.20;99.90;;;;;;5023731;28;20049;-68
2023/07/25 08:56:01;;;;;;;6.18;1.30;;;17.40;99.90;;;;;;5023852;28;20047;-66
2023/07/25 08:58:27;;;;;;;5.60;1.10;;;17.50;99.90;;;;;;5022928;28;20041;-65
2023/07/25 09:00:54;;;;;;;6.60;1.20;;;17.70;99.90;;;;;;5040013;28;20042;-67
2023/07/25 09:03:21;;;;;;;7.57;1.23;;;17.80;99.90;;;;;;5030189;28;20719;-66
2023/07/25 09:05:48;;;;;;;8.75;1.20;;;17.90;99.90;;;;;;5063279;28;20036;-69
2023/07/25 09:08:14;;;;;;;5.75;1.10;;;17.90;99.90;;;;;;5046525;28;20055;-69
2023/07/25 09:10:43;;;;;;;10.25;1.20;;;17.90;99.90;;;;;;5063699;28;20742;-68
2023/07/25 09:13:09;;;;;;;8.13;1.35;;;18.00;99.90;;;;;;5045403;28;20667;-66
2023/07/25 09:15:34;;;;;;;9.55;1.58;;;18.10;99.90;;;;;;5062577;28;20144;-67
2023/07/25 09:18:00;;;;;;;6.72;1.30;;;18.20;99.90;;;;;;5046686;28;20037;-66
2023/07/25 09:20:26;;;;;;;7.15;1.30;;;18.30;99.90;;;;;;5045691;28;20040;-67
2023/07/25 09:22:52;;;;;;;5.82;1.30;;;18.20;99.90;;;;;;5064416;28;20047;-65
2023/07/25 09:25:17;;;;;;;9.23;1.20;;;18.10;99.90;;;;;;5046362;28;20040;-67
2023/07/25 09:27:46;;;;;;;6.50;1.00;;;18.00;99.90;;;;;;5030143;28;20074;-67
2023/07/25 09:30:13;;;;;;;6.03;1.10;;;17.90;99.90;;;;;;5028674;28;20040;-67
2023/07/25 09:32:43;;;;;;;9.18;1.38;;;18.00;99.90;;;;;;5046815;28;20048;-68
2023/07/25 09:35:11;;;;;;;8.98;1.30;;;18.20;99.90;;;;;;5044776;28;20055;-67
2023/07/25 09:37:37;;;;;;;7.13;1.20;;;18.20;99.90;;;;;;5046086;28;20380;-66
2023/07/25 09:40:13;;;;;;;9.13;1.80;;;18.10;99.90;;;;;;5029462;28;20044;-65
2023/07/25 09:42:42;;;;;;;10.43;1.48;;;18.00;99.90;;;;;;5039579;28;20048;-65
2023/07/25 09:45:09;;;;;;;5.80;1.20;;;18.10;99.90;;;;;;5044917;28;20039;-62
2023/07/25 09:47:38;;;;;;;5.28;1.10;;;18.10;99.90;;;;;;5026326;28;20041;-64
2023/07/25 09:50:05;;;;;;;7.32;1.23;;;18.20;99.90;;;;;;5044780;28;20102;-66
2023/07/25 09:52:42;;;;;;;4.57;1.05;;;18.20;99.90;;;;;;5044943;28;20306;-67
2023/07/25 09:55:08;;;;;;;9.80;1.83;;;18.30;99.90;;;;;;5025648;28;20059;-67
2023/07/25 09:57:37;;;;;;;8.25;1.52;;;18.30;99.90;;;;;;5025025;28;20413;-66
2023/07/25 10:00:07;;;;;;;8.60;1.08;;;18.40;99.90;;;;;;5043660;28;20040;-66
2023/07/25 10:02:33;;;;;;;6.53;1.17;;;18.50;99.90;;;;;;5043078;28;20431;-62
2023/07/25 10:05:00;;;;;;;5.00;0.82;;;18.40;99.90;;;;;;5041797;28;20037;-64
2023/07/25 10:07:25;;;;;;;8.80;1.25;;;18.30;99.90;;;;;;5042247;28;20041;-62
2023/07/25 10:09:57;;;;;;;7.57;1.00;;;18.20;99.90;;;;;;5041820;28;20539;-65
2023/07/25 10:12:22;;;;;;;7.25;1.38;;;18.10;99.90;;;;;;5041178;28;20045;-67
2023/07/25 10:14:48;;;;;;;7.22;1.40;;;18.00;99.90;;;;;;5042920;28;20043;-68
2023/07/25 10:17:14;;;;;;;8.75;1.40;;;17.80;99.90;;;;;;5041963;28;20444;-66
2023/07/25 10:19:54;;;;;;;5.97;1.30;;;17.80;99.90;;;;;;5043905;28;20045;-65
2023/07/25 10:22:32;;;;;;;5.18;1.00;;;17.70;99.90;;;;;;5042110;28;20128;-65
2023/07/25 10:24:58;;;;;;;8.55;1.20;;;17.60;99.90;;;;;;5027175;28;20083;-67
2023/07/25 10:27:24;;;;;;;6.40;1.20;;;17.60;99.90;;;;;;5044634;28;20168;-66
2023/07/25 10:29:50;;;;;;;10.15;1.40;;;17.60;99.90;;;;;;5046120;28;20449;-67
2023/07/25 10:32:20;;;;;;;7.18;1.40;;;17.50;99.90;;;;;;5046125;28;20052;-61
2023/07/25 10:35:00;;;;;;;6.68;1.30;;;17.40;99.90;;;;;;5045657;28;20127;-69
2023/07/25 10:37:27;;;;;;;10.55;1.52;;;17.30;99.90;;;;;;5027660;28;20042;-68
2023/07/25 10:40:16;;;;;;;6.85;1.50;;;17.20;99.90;;;;;;5026006;28;20193;-64
2023/07/25 10:42:51;;;;;;;7.00;1.60;;;17.10;99.90;;;;;;5036998;28;20067;-68
2023/07/25 10:45:28;;;;;;;9.50;1.30;;;17.10;99.90;;;;;;5042848;28;20041;-65
2023/07/25 10:47:59;;;;;;;8.82;1.20;;;17.00;99.90;;;;;;5026348;28;20064;-67
2023/07/25 10:50:27;;;;;;;8.18;1.40;;;17.10;99.90;;;;;;5029384;28;20037;-66
2023/07/25 10:52:53;;;;;;;13.13;1.77;;;17.20;99.90;;;;;;5047238;28;20048;-68
2023/07/25 10:55:19;;;;;;;7.85;1.50;;;17.20;99.90;;;;;;5028793;28;20045;-64
2023/07/25 10:58:24;;;;;;;10.73;1.50;;;17.30;99.90;;;;;;5044619;28;20124;-65
2023/07/25 11:00:49;;;;;;;6.63;1.40;;;17.50;99.90;;;;;;5000425;28;20495;-67
2023/07/25 11:03:38;;;;;;;7.03;1.30;;;17.60;99.90;;;;;;5004479;28;20046;-68
2023/07/25 11:06:07;;;;;;;9.75;1.45;;;17.60;99.90;;;;;;5013889;28;20106;-66
2023/07/25 11:08:40;;;;;;;10.13;2.30;;;17.60;99.90;;;;;;5045844;28;20132;-69
2023/07/25 11:11:10;;;;;;;6.25;1.40;;;17.60;99.90;;;;;;5044045;28;20075;-68
2023/07/25 11:13:37;;;;;;;7.65;1.30;;;17.70;99.90;;;;;;5046410;28;20061;-66
2023/07/25 11:16:09;;;;;;;5.93;1.00;;;17.80;99.90;;;;;;5046391;28;20068;-70
2023/07/25 11:18:37;;;;;;;4.22;1.17;;;18.00;99.90;;;;;;5045571;28;20049;-68
2023/07/25 11:21:05;;;;;;;6.07;1.63;;;18.20;99.90;;;;;;5045423;28;20408;-69
2023/07/25 11:23:32;;;;;;;7.78;1.35;;;18.20;99.90;;;;;;5029225;28;20037;-69
2023/07/25 11:25:59;;;;;;;9.57;1.60;;;18.20;99.90;;;;;;5045720;28;20041;-66
2023/07/25 11:28:25;;;;;;;4.78;1.17;;;18.10;99.90;;;;;;5037611;28;20061;-69
2023/07/25 11:30:54;;;;;;;8.73;1.02;;;18.00;99.90;;;;;;5032167;28;20048;-66
2023/07/25 11:33:20;;;;;;;6.90;1.00;;;17.90;99.90;;;;;;5044665;28;20124;-68
2023/07/25 11:35:55;;;;;;;6.50;1.15;;;17.90;99.90;;;;;;5044553;28;20605;-67
2023/07/25 11:38:23;;;;;;;8.07;1.95;;;17.90;99.90;;;;;;5046412;28;20723;-68
2023/07/25 11:40:53;;;;;;;6.10;1.17;;;18.00;99.90;;;;;;5045171;28;20505;-67
2023/07/25 11:43:19;;;;;;;8.02;1.42;;;18.00;99.90;;;;;;5027207;28;20042;-66
2023/07/25 11:45:46;;;;;;;6.47;1.13;;;18.00;99.90;;;;;;5031407;28;20360;-70
2023/07/25 11:48:14;;;;;;;2.92;0.75;;;17.90;99.90;;;;;;5045082;28;20049;-65
2023/07/25 11:50:42;;;;;;;5.80;1.10;;;18.00;99.90;;;;;;5025244;28;20052;-67
2023/07/25 11:53:09;;;;;;;3.22;1.00;;;18.00;99.90;;;;;;5024796;28;20412;-60
2023/07/25 11:55:36;;;;;;;8.52;1.33;;;18.10;99.90;;;;;;5024196;28;20515;-65
2023/07/25 11:58:02;;;;;;;5.97;1.30;;;18.10;99.90;;;;;;5012365;28;20128;-66
2023/07/25 12:00:39;;;;;;;5.55;1.42;;;18.10;99.90;;;;;;5045985;28;20036;-64
2023/07/25 12:03:16;;;;;;;8.50;1.30;;;18.00;99.90;;;;;;5046222;28;20045;-69
2023/07/25 12:05:42;;;;;;;6.53;1.20;;;18.10;99.90;;;;;;5043809;28;20087;-65
2023/07/25 12:08:08;;;;;;;4.63;1.13;;;18.20;99.90;;;;;;5044525;28;20092;-67
2023/07/25 12:10:35;;;;;;;6.45;1.58;;;18.20;99.90;;;;;;5045334;28;20072;-68
2023/07/25 12:13:08;;;;;;;6.70;1.30;;;18.20;99.90;;;;;;5044987;28;20068;-67
2023/07/25 12:15:51;;;;;;;9.32;1.15;;;18.20;99.90;;;;;;5043982;28;20037;-67
2023/07/25 12:18:35;;;;;;;7.05;1.27;;;18.20;99.90;;;;;;5044376;28;20420;-68
2023/07/25 12:21:02;;;;;;;8.98;1.10;;;18.30;99.90;;;;;;5027640;28;20048;-64
2023/07/25 12:23:40;;;;;;;4.15;0.90;;;18.50;99.90;;;;;;5044513;28;20055;-65
2023/07/25 12:26:07;;;;;;;3.42;0.80;;;18.50;99.90;;;;;;5042277;28;20040;-67
2023/07/25 12:28:44;;;;;;;4.45;1.05;;;18.50;99.40;;;;;;5026892;28;20402;-68
2023/07/25 12:31:12;;;;;;;7.63;1.00;;;18.40;98.70;;;;;;5043921;28;20140;-69
2023/07/25 12:33:38;;;;;;;3.75;1.10;;;18.30;99.90;;;;;;5043745;28;20043;-70
2023/07/25 12:36:05;;;;;;;6.32;1.00;;;18.30;99.90;;;;;;5043536;28;20124;-65
2023/07/25 12:38:30;;;;;;;6.38;1.00;;;18.30;99.90;;;;;;5044324;28;20725;-66